Nearby METAR Reports

 

EGNV - Tees-Side, United Kingdom
Distance from station: W 8mi, 13km
Updated: 24/08/2019 19:20
Clear
Clear
 Wind from SSW
Wind: SSW 2 mph , 4 km/h
Temperature: 23°C
Dew Point: 10°C
Humidity: 44%
Barometer: 1017 hPa
Summary: Clear
Visibility: greater than 7 miles , 10 km
2019/08/24 18:20 EGNV 241820Z 21002KT CAVOK 23/10 Q1017
EGXE - Leeming Raf, United Kingdom
Distance from station: SW 21mi, 34km
Updated: 24/08/2019 18:50
Clear
Clear
 Wind from S
Wind: S 5 mph , 7 km/h
Temperature: 25°C
Dew Point: 9°C
Humidity: 36%
Barometer: 1017 hPa
Clouds: Clear
Visibility: 6 miles , 10 km
2019/08/24 17:50 EGXE 241750Z AUTO 17004KT 9999 NCD 25/09 Q1017
 
EGXZ - Topcliffe Raf, United Kingdom
Distance from station: SSW 24mi, 38km
Updated: 24/08/2019 18:50
Clear
Clear
 Wind from S
Wind: S 7 mph , 11 km/h
Temperature: 24°C
Dew Point: 12°C
Humidity: 47%
Barometer: 1017 hPa
Clouds: Clear
Visibility: 6 miles , 10 km
2019/08/24 17:50 EGXZ 241750Z AUTO 18006KT 9999 NCD 24/12 Q1017
EGXD - Dishforth Raf, United Kingdom
Distance from station: SSW 29mi, 46km
Updated: 06/06/2016 10:50
NOT Current
Clear
Clear
 Wind from SSE
Wind: SSE 5 mph , 7 km/h
Temperature: 18°C
Dew Point: 11°C
Humidity: 64%
Barometer: 1023 hPa
Clouds: Clear
Visibility: 6 miles , 10 km
2016/06/06 09:50 EGXD 060950Z AUTO 16004KT 9999 // NCD 18/11 Q1023
 
EGXU - Linton-On-Ouse R, United Kingdom
Distance from station: S 33mi, 53km
Updated: 24/08/2019 18:50
Clear
Clear
 Wind from SSE
Wind: SSE 6 mph , 9 km/h
Temperature: 26°C
Dew Point: 10°C
Humidity: 37%
Barometer: 1017 hPa
Clouds: Clear
Visibility: 6 miles , 10 km
2019/08/24 17:50 EGXU 241750Z AUTO 15005KT 9999 // NCD 26/10 Q1017
EGNT - Newcastle, United Kingdom
Distance from station: NNW 39mi, 63km
Updated: 24/08/2019 19:50
Clear
Clear
 Wind from varies
Wind: varies 3 mph , 6 km/h
Temperature: 22°C
Dew Point: 11°C
Humidity: 50%
Barometer: 1017 hPa
Summary: Clear
Visibility: greater than 7 miles , 10 km
2019/08/24 18:50 EGNT 241850Z VRB03KT CAVOK 22/11 Q1017
 
EGNM - Leeds And Bradfo, United Kingdom
Distance from station: SSW 49mi, 79km
Updated: 24/08/2019 19:50
Clear
Clear
 Wind from SSE
Wind: SSE 2 mph , 4 km/h
Temperature: 22°C
Dew Point: 11°C
Humidity: 50%
Barometer: 1017 hPa
Summary: Clear
Visibility: greater than 7 miles , 10 km
2019/08/24 18:50 EGNM 241850Z 15002KT CAVOK 22/11 Q1017